Time;durP1;ratioP1;P1;durP2;ratioP2;P2;SDS_P1;SDS_P2;PMS_P1;PMS_P2;Temp;Humidity;BMP_temperature;BMP_pressure;BME280_temperature;BME280_humidity;BME280_pressure;Samples;Min_cycle;Max_cycle;Signal;HPM_P1;HPM_P2
2024/01/30 00:00:18;;;;;;;10.63;9.50;;;;;;;;;;4965002;28;20441;-84
2024/01/30 00:02:46;;;;;;;13.87;9.37;;;;;;;;;;4968358;28;20524;-85
2024/01/30 00:05:13;;;;;;;10.77;7.80;;;;;;;;;;4971873;28;20549;-87
2024/01/30 00:07:41;;;;;;;10.07;8.33;;;;;;;;;;4950799;28;20506;-85
2024/01/30 00:10:10;;;;;;;8.50;7.60;;;;;;;;;;4965428;28;20452;-85
2024/01/30 00:12:37;;;;;;;12.80;8.20;;;;;;;;;;4954156;28;20530;-83
2024/01/30 00:15:09;;;;;;;10.13;8.40;;;;;;;;;;4966464;28;20453;-84
2024/01/30 00:17:38;;;;;;;12.53;8.50;;;;;;;;;;4952894;28;20492;-84
2024/01/30 00:20:05;;;;;;;10.17;9.07;;;;;;;;;;4963475;28;20457;-86
2024/01/30 00:22:34;;;;;;;11.00;8.53;;;;;;;;;;4950420;28;21382;-83
2024/01/30 00:25:01;;;;;;;12.40;9.07;;;;;;;;;;4963438;28;20445;-86
2024/01/30 00:27:29;;;;;;;9.40;7.90;;;;;;;;;;4966099;28;20497;-85
2024/01/30 00:29:56;;;;;;;9.30;8.37;;;;;;;;;;4968068;28;20476;-86
2024/01/30 00:32:24;;;;;;;12.40;8.80;;;;;;;;;;4968697;28;20465;-84
2024/01/30 00:34:52;;;;;;;10.27;8.10;;;;;;;;;;4969520;28;20447;-82
2024/01/30 00:37:20;;;;;;;11.40;8.53;;;;;;;;;;4967105;28;20465;-85
2024/01/30 00:39:48;;;;;;;8.63;7.73;;;;;;;;;;4966519;28;20524;-83
2024/01/30 00:42:17;;;;;;;12.57;8.70;;;;;;;;;;4953179;28;20449;-85
2024/01/30 00:44:44;;;;;;;8.83;7.83;;;;;;;;;;4951834;28;20466;-84
2024/01/30 00:47:11;;;;;;;10.60;7.80;;;;;;;;;;4957715;28;21601;-83
2024/01/30 00:49:38;;;;;;;10.80;9.70;;;;;;;;;;4945788;28;20489;-83
2024/01/30 00:52:06;;;;;;;11.23;9.40;;;;;;;;;;4956548;28;20560;-85
2024/01/30 00:54:34;;;;;;;9.40;8.40;;;;;;;;;;4951536;28;20510;-85
2024/01/30 00:57:01;;;;;;;10.17;8.27;;;;;;;;;;4952420;28;20481;-85
2024/01/30 00:59:29;;;;;;;9.23;8.10;;;;;;;;;;4955126;28;20488;-85
2024/01/30 01:01:56;;;;;;;9.10;7.97;;;;;;;;;;4950572;28;20502;-85
2024/01/30 01:04:26;;;;;;;8.30;7.47;;;;;;;;;;4962192;28;20545;-87
2024/01/30 01:06:54;;;;;;;11.37;8.40;;;;;;;;;;4964824;28;20474;-85
2024/01/30 01:09:22;;;;;;;10.70;8.03;;;;;;;;;;4956871;28;20468;-85
2024/01/30 01:11:49;;;;;;;9.13;7.97;;;;;;;;;;4951259;28;20464;-84
2024/01/30 01:14:16;;;;;;;9.70;8.50;;;;;;;;;;4960376;28;20517;-87
2024/01/30 01:16:44;;;;;;;10.70;8.67;;;;;;;;;;4960929;28;20487;-85
2024/01/30 01:19:15;;;;;;;9.37;8.37;;;;;;;;;;4963490;28;20459;-84
2024/01/30 01:21:43;;;;;;;8.80;7.90;;;;;;;;;;4966950;28;20455;-86
2024/01/30 01:24:13;;;;;;;10.30;8.77;;;;;;;;;;4956251;28;20464;-85
2024/01/30 01:26:41;;;;;;;9.23;8.17;;;;;;;;;;4961819;28;20467;-84
2024/01/30 01:29:11;;;;;;;13.93;9.63;;;;;;;;;;4966388;28;20483;-86
2024/01/30 01:31:43;;;;;;;11.00;9.00;;;;;;;;;;4973246;28;20448;-83
2024/01/30 01:34:11;;;;;;;13.80;8.47;;;;;;;;;;4968752;28;20488;-84
2024/01/30 01:36:38;;;;;;;9.70;7.97;;;;;;;;;;4966160;28;20446;-84
2024/01/30 01:39:06;;;;;;;10.30;7.90;;;;;;;;;;4961611;28;20465;-84
2024/01/30 01:41:33;;;;;;;9.80;7.77;;;;;;;;;;4962352;28;20822;-83
2024/01/30 01:44:00;;;;;;;10.23;7.87;;;;;;;;;;4954331;28;20510;-84
2024/01/30 01:46:30;;;;;;;11.70;8.90;;;;;;;;;;4950856;28;20473;-84
2024/01/30 01:48:58;;;;;;;9.70;7.70;;;;;;;;;;4937572;28;20590;-85
2024/01/30 01:51:26;;;;;;;10.10;8.20;;;;;;;;;;4946284;28;20595;-86
2024/01/30 01:53:54;;;;;;;13.73;8.27;;;;;;;;;;4947943;28;20485;-87
2024/01/30 01:56:22;;;;;;;9.43;8.33;;;;;;;;;;4924936;28;20466;-84
2024/01/30 01:58:50;;;;;;;13.20;7.90;;;;;;;;;;4934966;28;20469;-83
2024/01/30 02:01:19;;;;;;;11.30;8.13;;;;;;;;;;4933461;28;20439;-85
2024/01/30 02:03:47;;;;;;;8.30;7.43;;;;;;;;;;4947729;28;20536;-86
2024/01/30 02:06:15;;;;;;;9.43;8.53;;;;;;;;;;4951905;28;20449;-85
2024/01/30 02:08:42;;;;;;;9.23;8.20;;;;;;;;;;4944605;28;20480;-84
2024/01/30 02:11:10;;;;;;;9.60;7.80;;;;;;;;;;4937214;28;20463;-83
2024/01/30 02:13:37;;;;;;;12.63;8.50;;;;;;;;;;4947621;28;20485;-85
2024/01/30 02:16:04;;;;;;;14.00;7.33;;;;;;;;;;4960667;28;20457;-85
2024/01/30 02:18:31;;;;;;;9.03;7.77;;;;;;;;;;4969051;28;20540;-86
2024/01/30 02:21:03;;;;;;;10.20;7.40;;;;;;;;;;4967026;28;20457;-86
2024/01/30 02:23:31;;;;;;;10.50;7.60;;;;;;;;;;4970059;28;20521;-86
2024/01/30 02:25:58;;;;;;;11.87;7.27;;;;;;;;;;4963576;28;20484;-84
2024/01/30 02:28:25;;;;;;;12.07;8.23;;;;;;;;;;4953286;28;20853;-86
2024/01/30 02:30:53;;;;;;;9.67;7.40;;;;;;;;;;4953824;28;20469;-85
2024/01/30 02:33:21;;;;;;;9.97;8.07;;;;;;;;;;4949439;28;20500;-86
2024/01/30 02:35:49;;;;;;;9.80;8.10;;;;;;;;;;4947394;28;20528;-85
2024/01/30 02:38:16;;;;;;;9.17;6.87;;;;;;;;;;4939989;28;20508;-86
2024/01/30 02:40:43;;;;;;;8.30;7.37;;;;;;;;;;4945522;28;20457;-85
2024/01/30 02:43:10;;;;;;;13.63;8.20;;;;;;;;;;4951485;28;21253;-84
2024/01/30 02:45:40;;;;;;;11.63;7.77;;;;;;;;;;4950654;28;20450;-85
2024/01/30 02:48:08;;;;;;;13.13;8.37;;;;;;;;;;4952113;28;20460;-84
2024/01/30 02:50:35;;;;;;;8.57;7.20;;;;;;;;;;4953248;28;20792;-85
2024/01/30 02:53:03;;;;;;;8.83;7.33;;;;;;;;;;4944720;28;20446;-83
2024/01/30 02:55:30;;;;;;;10.80;7.97;;;;;;;;;;4943840;28;20460;-84
2024/01/30 02:57:58;;;;;;;9.47;7.77;;;;;;;;;;4955690;28;20882;-85
2024/01/30 03:00:25;;;;;;;14.57;9.00;;;;;;;;;;4953881;28;20487;-84
2024/01/30 03:02:52;;;;;;;8.73;6.87;;;;;;;;;;4953890;28;20465;-86
2024/01/30 03:05:19;;;;;;;10.50;7.00;;;;;;;;;;4953281;28;20465;-87
2024/01/30 03:07:47;;;;;;;7.77;6.80;;;;;;;;;;4951397;28;20508;-87
2024/01/30 03:10:14;;;;;;;7.60;6.77;;;;;;;;;;4950324;28;20925;-85
2024/01/30 03:12:41;;;;;;;11.53;8.53;;;;;;;;;;4954663;28;20559;-84
2024/01/30 03:15:09;;;;;;;8.10;7.30;;;;;;;;;;4941645;28;21101;-86
2024/01/30 03:17:36;;;;;;;10.47;7.13;;;;;;;;;;4957027;28;21214;-84
2024/01/30 03:20:06;;;;;;;11.60;7.63;;;;;;;;;;4955027;28;20458;-84
2024/01/30 03:22:33;;;;;;;10.47;7.63;;;;;;;;;;4948102;28;21705;-85
2024/01/30 03:25:00;;;;;;;8.90;7.80;;;;;;;;;;4963585;28;20459;-85
2024/01/30 03:27:28;;;;;;;9.20;7.60;;;;;;;;;;4961618;28;20541;-85
2024/01/30 03:29:58;;;;;;;9.90;7.80;;;;;;;;;;4966673;28;20579;-86
2024/01/30 03:32:25;;;;;;;14.43;8.27;;;;;;;;;;4950701;28;20461;-83
2024/01/30 03:34:52;;;;;;;10.13;9.13;;;;;;;;;;4935669;28;20480;-86
2024/01/30 03:37:20;;;;;;;9.30;7.53;;;;;;;;;;4950098;28;20520;-86
2024/01/30 03:39:47;;;;;;;9.60;7.63;;;;;;;;;;4942718;28;20464;-85
2024/01/30 03:42:14;;;;;;;12.33;9.00;;;;;;;;;;4939867;28;20666;-85
2024/01/30 03:44:41;;;;;;;8.83;7.70;;;;;;;;;;4934456;28;20489;-86
2024/01/30 03:47:08;;;;;;;8.93;7.83;;;;;;;;;;4938735;28;20469;-86
2024/01/30 03:49:35;;;;;;;10.37;6.93;;;;;;;;;;4941105;28;20442;-85
2024/01/30 03:52:03;;;;;;;9.67;8.20;;;;;;;;;;4939490;28;20477;-85
2024/01/30 03:54:30;;;;;;;9.43;8.03;;;;;;;;;;4943404;28;21096;-86
2024/01/30 03:56:57;;;;;;;10.80;7.50;;;;;;;;;;4943766;28;20500;-84
2024/01/30 03:59:24;;;;;;;8.60;7.40;;;;;;;;;;4955396;28;20563;-85
2024/01/30 04:01:51;;;;;;;7.90;6.87;;;;;;;;;;4943051;28;20493;-86
2024/01/30 04:04:19;;;;;;;8.47;7.53;;;;;;;;;;4952392;28;20469;-84
2024/01/30 04:06:46;;;;;;;8.70;7.20;;;;;;;;;;4948286;28;20590;-84
2024/01/30 04:09:14;;;;;;;12.63;7.90;;;;;;;;;;4942137;28;21232;-84
2024/01/30 04:11:42;;;;;;;7.93;7.03;;;;;;;;;;4937418;28;20468;-84
2024/01/30 04:14:09;;;;;;;10.70;7.90;;;;;;;;;;4941872;28;20497;-86
2024/01/30 04:16:36;;;;;;;12.13;9.23;;;;;;;;;;4933358;28;20459;-86
2024/01/30 04:19:03;;;;;;;9.10;6.70;;;;;;;;;;4936768;28;20461;-85
2024/01/30 04:21:31;;;;;;;10.90;7.63;;;;;;;;;;4935137;28;20458;-84
2024/01/30 04:23:58;;;;;;;8.87;7.67;;;;;;;;;;4939799;28;20547;-86
2024/01/30 04:26:25;;;;;;;11.00;8.40;;;;;;;;;;4948547;28;20457;-85
2024/01/30 04:28:52;;;;;;;10.33;8.20;;;;;;;;;;4955147;28;20477;-85
2024/01/30 04:31:19;;;;;;;15.97;8.50;;;;;;;;;;4949864;28;20433;-83
2024/01/30 04:33:47;;;;;;;11.07;7.97;;;;;;;;;;4953218;28;20477;-84
2024/01/30 04:36:14;;;;;;;10.07;7.67;;;;;;;;;;4954580;28;20457;-86
2024/01/30 04:38:41;;;;;;;10.33;7.70;;;;;;;;;;4951587;28;20486;-84
2024/01/30 04:41:08;;;;;;;10.50;8.07;;;;;;;;;;4947765;28;20463;-83
2024/01/30 04:43:36;;;;;;;9.53;7.97;;;;;;;;;;4952959;28;20434;-85
2024/01/30 04:46:03;;;;;;;7.10;6.40;;;;;;;;;;4955188;28;20457;-84
2024/01/30 04:48:30;;;;;;;10.27;7.70;;;;;;;;;;4940453;28;20493;-87
2024/01/30 04:50:57;;;;;;;9.30;7.70;;;;;;;;;;4963764;28;20461;-88
2024/01/30 04:53:24;;;;;;;8.47;7.17;;;;;;;;;;4952660;28;20462;-83
2024/01/30 04:55:51;;;;;;;8.90;7.77;;;;;;;;;;4950759;28;20475;-84
2024/01/30 04:58:19;;;;;;;9.97;7.60;;;;;;;;;;4962630;28;20483;-84
2024/01/30 05:00:51;;;;;;;11.07;7.10;;;;;;;;;;4958520;28;20453;-83
2024/01/30 05:03:20;;;;;;;8.53;7.53;;;;;;;;;;4960538;28;20535;-84
2024/01/30 05:05:47;;;;;;;6.97;6.27;;;;;;;;;;4940839;28;20468;-82
2024/01/30 05:08:14;;;;;;;10.63;7.87;;;;;;;;;;4954445;28;20477;-84
2024/01/30 05:10:41;;;;;;;7.17;6.47;;;;;;;;;;4956528;28;21353;-87
2024/01/30 05:13:09;;;;;;;12.23;8.20;;;;;;;;;;4937586;28;20465;-85
2024/01/30 05:15:36;;;;;;;9.10;7.50;;;;;;;;;;4951543;28;20521;-84
2024/01/30 05:18:03;;;;;;;11.70;9.50;;;;;;;;;;4959046;28;20463;-85
2024/01/30 05:20:30;;;;;;;11.10;8.27;;;;;;;;;;4963627;28;20524;-84
2024/01/30 05:22:57;;;;;;;8.93;8.00;;;;;;;;;;4963436;28;20447;-83
2024/01/30 05:25:25;;;;;;;10.53;9.27;;;;;;;;;;4964571;28;20470;-84
2024/01/30 05:27:52;;;;;;;11.53;8.17;;;;;;;;;;4950693;28;20725;-84
2024/01/30 05:30:19;;;;;;;9.53;6.83;;;;;;;;;;4964257;28;20458;-85
2024/01/30 05:32:46;;;;;;;10.70;7.10;;;;;;;;;;4963754;28;20460;-84
2024/01/30 05:35:13;;;;;;;10.27;7.50;;;;;;;;;;4964359;28;20951;-85
2024/01/30 05:37:41;;;;;;;8.17;7.30;;;;;;;;;;4949974;28;20455;-84
2024/01/30 05:40:08;;;;;;;9.20;7.90;;;;;;;;;;4963831;28;20436;-84
2024/01/30 05:42:35;;;;;;;9.63;7.70;;;;;;;;;;4950169;28;20464;-84
2024/01/30 05:45:02;;;;;;;8.90;8.00;;;;;;;;;;4938603;28;20512;-84
2024/01/30 05:47:30;;;;;;;10.43;8.07;;;;;;;;;;4937186;28;20481;-85
2024/01/30 05:49:57;;;;;;;11.07;8.63;;;;;;;;;;4937948;28;20465;-86
2024/01/30 05:52:25;;;;;;;9.77;7.97;;;;;;;;;;4944617;28;20457;-85
2024/01/30 05:54:52;;;;;;;8.80;7.60;;;;;;;;;;4940549;28;20539;-84
2024/01/30 05:57:19;;;;;;;10.00;8.10;;;;;;;;;;4933921;28;20457;-84
2024/01/30 05:59:47;;;;;;;12.77;7.93;;;;;;;;;;4944677;28;20457;-84
2024/01/30 06:02:14;;;;;;;9.97;8.00;;;;;;;;;;4939726;28;20449;-87
2024/01/30 06:04:44;;;;;;;9.90;7.80;;;;;;;;;;4940115;28;20475;-84
2024/01/30 06:07:17;;;;;;;10.20;7.93;;;;;;;;;;4955974;28;20485;-86
2024/01/30 06:09:45;;;;;;;10.40;6.83;;;;;;;;;;4950867;28;20469;-85
2024/01/30 06:12:15;;;;;;;10.93;7.90;;;;;;;;;;4948203;28;20470;-85
2024/01/30 06:14:42;;;;;;;9.87;8.13;;;;;;;;;;4943346;28;21060;-85
2024/01/30 06:17:13;;;;;;;10.03;7.87;;;;;;;;;;4941453;28;22113;-86
2024/01/30 06:19:41;;;;;;;8.20;7.40;;;;;;;;;;4939163;28;20614;-86
2024/01/30 06:22:09;;;;;;;10.13;8.83;;;;;;;;;;4946530;28;20462;-84
2024/01/30 06:24:38;;;;;;;11.00;8.00;;;;;;;;;;4942887;28;20449;-84
2024/01/30 06:27:05;;;;;;;9.23;8.23;;;;;;;;;;4941233;28;20941;-83
2024/01/30 06:29:34;;;;;;;10.37;7.93;;;;;;;;;;4949054;28;20457;-85
2024/01/30 06:32:01;;;;;;;11.13;8.50;;;;;;;;;;4943831;28;21024;-86
2024/01/30 06:34:31;;;;;;;11.20;7.70;;;;;;;;;;4943016;28;20500;-85
2024/01/30 06:37:01;;;;;;;12.87;8.93;;;;;;;;;;4945732;28;20485;-85
2024/01/30 06:39:31;;;;;;;9.53;7.80;;;;;;;;;;4950204;28;20481;-85
2024/01/30 06:41:59;;;;;;;12.80;7.63;;;;;;;;;;4944988;28;20462;-84
2024/01/30 06:44:26;;;;;;;10.47;8.67;;;;;;;;;;4939553;28;20466;-84
2024/01/30 06:46:55;;;;;;;9.07;8.17;;;;;;;;;;4941511;28;20500;-83
2024/01/30 06:49:22;;;;;;;10.33;8.93;;;;;;;;;;4945118;28;20468;-83
2024/01/30 06:51:49;;;;;;;10.30;7.93;;;;;;;;;;4940918;28;20494;-86
2024/01/30 06:54:16;;;;;;;11.53;9.17;;;;;;;;;;4937799;28;20537;-84
2024/01/30 06:56:43;;;;;;;10.13;8.50;;;;;;;;;;4939559;28;20444;-85
2024/01/30 06:59:11;;;;;;;10.20;8.53;;;;;;;;;;4934879;28;20488;-87
2024/01/30 07:01:38;;;;;;;8.93;8.03;;;;;;;;;;4946303;28;21497;-86
2024/01/30 07:04:05;;;;;;;8.87;7.97;;;;;;;;;;4938128;28;20441;-85
2024/01/30 07:06:33;;;;;;;9.90;7.80;;;;;;;;;;4950995;28;20571;-86
2024/01/30 07:09:01;;;;;;;11.10;9.33;;;;;;;;;;4942408;28;20472;-85
2024/01/30 07:11:29;;;;;;;10.13;5.90;;;;;;;;;;4939867;28;20457;-85
2024/01/30 07:13:56;;;;;;;7.80;7.00;;;;;;;;;;4943885;28;20452;-84
2024/01/30 07:16:23;;;;;;;10.87;7.47;;;;;;;;;;4942229;28;20486;-87
2024/01/30 07:18:50;;;;;;;11.90;8.03;;;;;;;;;;4948649;28;20518;-84
2024/01/30 07:21:17;;;;;;;8.83;7.53;;;;;;;;;;4957160;28;20535;-85
2024/01/30 07:23:45;;;;;;;8.73;7.23;;;;;;;;;;4961097;28;20457;-85
2024/01/30 07:26:13;;;;;;;10.53;7.57;;;;;;;;;;4972622;28;20536;-85
2024/01/30 07:28:40;;;;;;;12.70;7.70;;;;;;;;;;4960388;28;20487;-87
2024/01/30 07:31:09;;;;;;;9.53;7.80;;;;;;;;;;4959633;28;20572;-87
2024/01/30 07:33:46;;;;;;;9.40;7.67;;;;;;;;;;4995608;23;20510;-83
2024/01/30 07:37:22;;;;;;;9.60;7.63;;;;;;;;;;5001577;28;20664;-85
2024/01/30 07:40:04;;;;;;;10.70;7.67;;;;;;;;;;4954390;28;20471;-84
2024/01/30 07:45:42;;;;;;;14.83;6.97;;;;;;;;;;4970545;28;20467;-86
2024/01/30 07:48:17;;;;;;;10.40;7.70;;;;;;;;;;4976864;28;20851;-85
2024/01/30 07:50:45;;;;;;;8.47;7.60;;;;;;;;;;4988870;28;20461;-86
2024/01/30 07:53:15;;;;;;;14.70;8.80;;;;;;;;;;4957764;28;20522;-84
2024/01/30 07:55:43;;;;;;;11.30;7.90;;;;;;;;;;4977607;28;20604;-85
2024/01/30 07:58:11;;;;;;;10.50;8.17;;;;;;;;;;4961769;28;20480;-86
2024/01/30 08:00:38;;;;;;;10.00;7.20;;;;;;;;;;4983001;28;20453;-85
2024/01/30 08:03:05;;;;;;;8.87;7.47;;;;;;;;;;4977398;28;20543;-86
2024/01/30 08:05:34;;;;;;;10.30;8.23;;;;;;;;;;4979743;28;20462;-86
2024/01/30 08:08:02;;;;;;;8.27;7.47;;;;;;;;;;4987616;28;20547;-85
2024/01/30 08:10:29;;;;;;;9.90;7.10;;;;;;;;;;4974529;28;20511;-86
2024/01/30 08:12:56;;;;;;;10.60;8.67;;;;;;;;;;4971124;28;20480;-84
2024/01/30 08:15:24;;;;;;;10.20;7.60;;;;;;;;;;4968557;28;20498;-87
2024/01/30 08:17:55;;;;;;;10.90;7.67;;;;;;;;;;4973960;28;20506;-86
2024/01/30 08:20:22;;;;;;;12.87;7.70;;;;;;;;;;4978516;28;20467;-85
2024/01/30 08:22:50;;;;;;;9.00;7.30;;;;;;;;;;5000917;28;20456;-85
2024/01/30 08:25:17;;;;;;;9.60;6.70;;;;;;;;;;4983587;28;20496;-86
2024/01/30 08:27:45;;;;;;;15.33;8.00;;;;;;;;;;4978074;28;20465;-87
2024/01/30 08:30:12;;;;;;;10.90;8.83;;;;;;;;;;4995919;28;20456;-83
2024/01/30 08:32:40;;;;;;;12.60;8.20;;;;;;;;;;4980859;28;20585;-85
2024/01/30 08:35:08;;;;;;;9.20;6.93;;;;;;;;;;4985089;28;21085;-85
2024/01/30 08:37:54;;;;;;;9.77;6.73;;;;;;;;;;5003879;28;20486;-84
2024/01/30 08:40:50;;;;;;;8.03;7.20;;;;;;;;;;4991547;28;20461;-84
2024/01/30 08:43:21;;;;;;;7.93;6.80;;;;;;;;;;4986237;28;20468;-84
2024/01/30 08:45:50;;;;;;;9.70;6.83;;;;;;;;;;4979572;28;20448;-85
2024/01/30 08:48:18;;;;;;;11.63;7.73;;;;;;;;;;4990244;28;20495;-86
2024/01/30 08:51:02;;;;;;;;;;;;;;;;;;;;;
2024/01/30 08:53:54;;;;;;;8.33;7.30;;;;;;;;;;4996206;28;20443;-84
2024/01/30 08:56:35;;;;;;;9.40;8.03;;;;;;;;;;4978131;28;21013;-85
2024/01/30 08:59:10;;;;;;;8.80;6.67;;;;;;;;;;4974551;28;20445;-85
2024/01/30 09:01:54;;;;;;;8.37;7.10;;;;;;;;;;4977102;28;20548;-85
2024/01/30 09:04:26;;;;;;;8.00;7.07;;;;;;;;;;4974171;28;20744;-85
2024/01/30 09:06:54;;;;;;;11.03;8.00;;;;;;;;;;4975510;28;20480;-86
2024/01/30 09:09:25;;;;;;;9.40;8.03;;;;;;;;;;4992992;28;20503;-86
2024/01/30 09:11:55;;;;;;;9.63;7.47;;;;;;;;;;4979165;28;20448;-84
2024/01/30 09:14:40;;;;;;;11.70;9.10;;;;;;;;;;4976376;28;20472;-85
2024/01/30 09:17:20;;;;;;;;;;;;;;;;;;;;;
2024/01/30 09:19:50;;;;;;;8.67;7.70;;;;;;;;;;4968146;28;20832;-84
2024/01/30 09:22:23;;;;;;;10.40;8.87;;;;;;;;;;4979724;28;20462;-85
2024/01/30 09:25:12;;;;;;;;;;;;;;;;;;;;;
2024/01/30 09:28:05;;;;;;;10.00;8.40;;;;;;;;;;4967614;28;20547;-85
2024/01/30 09:30:34;;;;;;;8.67;7.30;;;;;;;;;;4983082;28;20469;-84
2024/01/30 09:33:02;;;;;;;16.60;8.33;;;;;;;;;;4964711;28;20527;-84
2024/01/30 09:35:36;;;;;;;9.83;7.57;;;;;;;;;;4969029;28;20587;-83
2024/01/30 09:38:23;;;;;;;9.80;8.30;;;;;;;;;;4959699;28;20486;-85
2024/01/30 09:40:56;;;;;;;9.53;7.53;;;;;;;;;;4978535;28;20514;-86
2024/01/30 09:43:24;;;;;;;9.80;8.27;;;;;;;;;;4965749;28;20480;-84
2024/01/30 09:45:54;;;;;;;9.53;7.60;;;;;;;;;;4983579;28;20464;-85
2024/01/30 09:48:24;;;;;;;11.50;7.70;;;;;;;;;;4965438;28;20579;-85
2024/01/30 09:50:52;;;;;;;12.10;7.77;;;;;;;;;;4975979;28;20448;-86
2024/01/30 09:53:19;;;;;;;10.37;7.17;;;;;;;;;;4960314;28;20444;-85
2024/01/30 09:55:47;;;;;;;9.73;7.33;;;;;;;;;;4961245;28;20485;-85
2024/01/30 09:58:15;;;;;;;9.50;7.03;;;;;;;;;;4960709;28;20475;-84
2024/01/30 10:00:48;;;;;;;8.87;7.83;;;;;;;;;;4977896;28;20476;-84
2024/01/30 10:03:15;;;;;;;8.20;7.17;;;;;;;;;;4960882;28;20455;-85
2024/01/30 10:05:45;;;;;;;10.30;7.90;;;;;;;;;;4981548;28;20448;-85
2024/01/30 10:08:12;;;;;;;9.80;7.83;;;;;;;;;;4961947;28;21525;-86
2024/01/30 10:10:40;;;;;;;12.57;7.47;;;;;;;;;;4969491;28;20448;-85
2024/01/30 10:13:07;;;;;;;9.90;7.17;;;;;;;;;;4985298;28;20460;-85
2024/01/30 10:15:35;;;;;;;7.57;6.77;;;;;;;;;;4961370;28;20484;-84
2024/01/30 10:18:03;;;;;;;13.43;8.20;;;;;;;;;;4961279;28;20534;-84
2024/01/30 10:20:30;;;;;;;11.00;7.60;;;;;;;;;;4964643;28;20465;-85
2024/01/30 10:22:57;;;;;;;12.10;7.53;;;;;;;;;;4966607;28;20490;-84
2024/01/30 10:25:26;;;;;;;10.00;7.70;;;;;;;;;;4968338;28;20842;-84
2024/01/30 10:27:56;;;;;;;11.37;8.37;;;;;;;;;;4966529;28;20483;-84
2024/01/30 10:30:28;;;;;;;9.30;6.80;;;;;;;;;;4964435;28;21752;-86
2024/01/30 10:32:55;;;;;;;8.40;7.30;;;;;;;;;;4965684;28;20542;-85
2024/01/30 10:35:22;;;;;;;11.10;6.80;;;;;;;;;;4967329;28;20492;-85
2024/01/30 10:37:49;;;;;;;10.53;7.80;;;;;;;;;;4971980;28;20483;-86
2024/01/30 10:40:17;;;;;;;12.33;7.97;;;;;;;;;;4968062;28;20466;-86
2024/01/30 10:42:44;;;;;;;10.00;7.70;;;;;;;;;;4974170;28;20520;-84
2024/01/30 10:45:12;;;;;;;8.33;7.10;;;;;;;;;;4978393;28;20439;-83
2024/01/30 10:47:41;;;;;;;10.40;7.93;;;;;;;;;;4978738;28;20464;-85
2024/01/30 10:50:10;;;;;;;8.70;7.33;;;;;;;;;;4976454;28;20452;-84
2024/01/30 10:52:42;;;;;;;7.80;6.70;;;;;;;;;;4967874;28;20449;-85
2024/01/30 10:55:12;;;;;;;8.93;7.43;;;;;;;;;;4986575;28;20464;-85
2024/01/30 10:57:42;;;;;;;9.47;8.00;;;;;;;;;;4986585;28;20479;-85
2024/01/30 11:00:15;;;;;;;8.70;7.77;;;;;;;;;;4956224;28;21276;-84
2024/01/30 11:02:44;;;;;;;9.13;6.80;;;;;;;;;;4965274;28;20461;-85
2024/01/30 11:05:15;;;;;;;9.90;7.33;;;;;;;;;;4991112;28;20574;-86
2024/01/30 11:07:45;;;;;;;9.07;7.30;;;;;;;;;;4975723;28;20476;-84
2024/01/30 11:10:14;;;;;;;10.33;7.77;;;;;;;;;;4974947;28;20538;-84
2024/01/30 11:12:46;;;;;;;11.37;7.67;;;;;;;;;;4992202;28;20456;-85
2024/01/30 11:15:14;;;;;;;8.87;7.17;;;;;;;;;;4969262;28;20459;-84
2024/01/30 11:17:45;;;;;;;11.23;7.33;;;;;;;;;;4965886;28;20498;-86
2024/01/30 11:20:19;;;;;;;12.40;8.07;;;;;;;;;;4964215;28;20567;-85
2024/01/30 11:22:47;;;;;;;8.20;7.33;;;;;;;;;;4966193;28;20461;-84
2024/01/30 11:25:15;;;;;;;9.50;6.50;;;;;;;;;;4982979;28;20464;-87
2024/01/30 11:27:46;;;;;;;11.40;7.03;;;;;;;;;;4967076;28;20484;-85
2024/01/30 11:30:22;;;;;;;8.63;7.47;;;;;;;;;;4967277;28;20505;-84
2024/01/30 11:33:00;;;;;;;11.03;8.03;;;;;;;;;;4982719;28;20451;-84
2024/01/30 11:35:27;;;;;;;9.43;6.57;;;;;;;;;;4991017;28;20443;-84
2024/01/30 11:38:01;;;;;;;10.70;7.30;;;;;;;;;;4991175;28;20629;-83
2024/01/30 11:40:30;;;;;;;9.40;6.80;;;;;;;;;;4990585;28;20472;-84
2024/01/30 11:43:01;;;;;;;7.70;6.97;;;;;;;;;;4989550;28;20515;-84
2024/01/30 11:45:31;;;;;;;11.10;6.80;;;;;;;;;;4973435;28;20456;-84
2024/01/30 11:48:03;;;;;;;10.20;7.27;;;;;;;;;;4969419;28;20478;-86
2024/01/30 11:50:32;;;;;;;8.57;7.30;;;;;;;;;;4969295;28;20531;-83
2024/01/30 11:53:02;;;;;;;7.37;5.97;;;;;;;;;;4967773;28;22087;-85
2024/01/30 11:55:30;;;;;;;9.33;6.87;;;;;;;;;;4969091;28;20491;-83
2024/01/30 11:58:00;;;;;;;14.73;7.73;;;;;;;;;;4964101;28;20504;-85
2024/01/30 12:00:29;;;;;;;6.83;6.13;;;;;;;;;;4980679;28;21151;-84
2024/01/30 12:03:02;;;;;;;10.60;7.23;;;;;;;;;;4967909;28;20490;-85
2024/01/30 12:05:31;;;;;;;8.80;7.10;;;;;;;;;;4969105;28;21228;-85
2024/01/30 12:07:59;;;;;;;10.23;7.33;;;;;;;;;;4984141;28;20825;-85
2024/01/30 12:10:28;;;;;;;7.90;6.20;;;;;;;;;;4970300;28;20540;-84
2024/01/30 12:13:03;;;;;;;10.20;6.90;;;;;;;;;;4985300;28;20467;-83
2024/01/30 12:15:32;;;;;;;8.40;6.43;;;;;;;;;;4977110;28;21408;-84
2024/01/30 12:18:31;;;;;;;8.00;6.20;;;;;;;;;;4967425;28;20472;-84
2024/01/30 12:21:12;;;;;;;9.03;7.13;;;;;;;;;;4980861;28;20441;-85
2024/01/30 12:23:46;;;;;;;9.50;6.10;;;;;;;;;;4967621;28;20441;-86
2024/01/30 12:26:21;;;;;;;10.50;7.10;;;;;;;;;;4982635;28;20448;-83
2024/01/30 12:28:58;;;;;;;7.00;6.23;;;;;;;;;;4969002;28;20468;-86
2024/01/30 12:31:29;;;;;;;7.80;7.00;;;;;;;;;;4985695;28;20472;-84
2024/01/30 12:34:02;;;;;;;9.07;6.57;;;;;;;;;;4984581;28;20506;-84
2024/01/30 12:41:53;;;;;;;6.57;5.90;;;;;;;;;;4982326;28;20467;-86
2024/01/30 12:44:46;;;;;;;9.00;7.60;;;;;;;;;;4987924;28;20443;-85
2024/01/30 12:47:22;;;;;;;8.30;6.33;;;;;;;;;;4984568;28;20544;-84
2024/01/30 12:49:54;;;;;;;8.17;6.77;;;;;;;;;;5006566;28;20469;-86
2024/01/30 12:52:25;;;;;;;12.90;6.93;;;;;;;;;;4992224;28;20454;-84
2024/01/30 12:54:53;;;;;;;10.00;5.93;;;;;;;;;;4987246;28;20483;-85
2024/01/30 12:57:20;;;;;;;8.30;6.33;;;;;;;;;;4984967;28;20491;-84
2024/01/30 12:59:51;;;;;;;7.23;6.47;;;;;;;;;;4975454;28;20451;-87
2024/01/30 13:02:19;;;;;;;12.70;7.43;;;;;;;;;;4990960;28;20444;-84
2024/01/30 13:04:50;;;;;;;8.50;6.37;;;;;;;;;;4987550;28;21517;-84
2024/01/30 13:07:20;;;;;;;13.47;7.27;;;;;;;;;;4988191;28;20490;-85
2024/01/30 13:09:47;;;;;;;8.93;6.50;;;;;;;;;;4992275;28;20454;-83
2024/01/30 13:12:15;;;;;;;6.43;5.47;;;;;;;;;;5007148;28;20495;-84
2024/01/30 13:14:43;;;;;;;10.33;6.37;;;;;;;;;;4985805;28;21099;-84
2024/01/30 13:17:11;;;;;;;9.73;7.20;;;;;;;;;;4984108;28;20495;-85
2024/01/30 13:19:38;;;;;;;10.47;7.20;;;;;;;;;;4993453;28;20465;-85
2024/01/30 13:22:21;;;;;;;7.97;6.90;;;;;;;;;;4997363;28;20460;-85
2024/01/30 13:24:48;;;;;;;9.63;6.23;;;;;;;;;;4991277;28;20488;-84
2024/01/30 13:27:16;;;;;;;10.47;7.53;;;;;;;;;;5009280;28;20468;-84
2024/01/30 13:29:44;;;;;;;9.97;6.13;;;;;;;;;;4993830;28;20463;-87
2024/01/30 13:32:14;;;;;;;8.80;6.93;;;;;;;;;;4994380;28;20486;-87
2024/01/30 13:34:45;;;;;;;9.03;7.50;;;;;;;;;;4990659;28;20460;-88
2024/01/30 13:37:37;;;;;;;9.50;7.60;;;;;;;;;;5009267;28;20570;-87
2024/01/30 13:40:07;;;;;;;11.97;7.87;;;;;;;;;;4999095;28;20532;-87
2024/01/30 13:42:41;;;;;;;8.73;6.70;;;;;;;;;;5000505;28;20522;-88
2024/01/30 13:45:11;;;;;;;8.93;7.13;;;;;;;;;;5003154;28;20522;-87
2024/01/30 13:47:46;;;;;;;6.87;5.17;;;;;;;;;;5013914;28;20469;-87
2024/01/30 13:50:57;;;;;;;6.60;4.73;;;;;;;;;;4998255;28;20436;-86
2024/01/30 13:53:50;;;;;;;8.50;4.80;;;;;;;;;;5026482;28;21696;-84
2024/01/30 13:56:47;;;;;;;5.17;4.30;;;;;;;;;;4994484;28;21095;-85
2024/01/30 13:59:25;;;;;;;6.07;4.03;;;;;;;;;;4992158;28;20843;-85
2024/01/30 14:01:57;;;;;;;5.00;3.77;;;;;;;;;;5003349;28;20455;-84
2024/01/30 14:05:04;;;;;;;5.03;4.30;;;;;;;;;;4978472;28;20463;-84
2024/01/30 14:08:14;;;;;;;10.07;5.30;;;;;;;;;;4993482;28;20503;-84
2024/01/30 14:10:49;;;;;;;6.43;4.03;;;;;;;;;;5005742;28;20529;-85
2024/01/30 14:13:52;;;;;;;6.80;4.43;;;;;;;;;;5008700;28;20451;-83
2024/01/30 14:16:38;;;;;;;7.47;4.33;;;;;;;;;;5007733;28;20513;-86
2024/01/30 14:19:11;;;;;;;5.30;4.17;;;;;;;;;;5005344;28;20440;-83
2024/01/30 14:21:40;;;;;;;9.40;3.90;;;;;;;;;;5007414;28;20453;-82
2024/01/30 14:24:13;;;;;;;4.77;4.30;;;;;;;;;;4991251;28;20458;-84
2024/01/30 14:26:41;;;;;;;9.20;4.40;;;;;;;;;;4994893;28;20479;-82
2024/01/30 14:29:14;;;;;;;6.70;4.03;;;;;;;;;;5004022;28;20466;-83
2024/01/30 14:31:43;;;;;;;5.67;4.27;;;;;;;;;;4989596;28;21477;-81
2024/01/30 14:34:18;;;;;;;7.03;5.70;;;;;;;;;;4989144;28;20459;-84
2024/01/30 14:36:49;;;;;;;5.63;4.73;;;;;;;;;;4984383;28;20536;-84
2024/01/30 14:39:19;;;;;;;6.13;4.43;;;;;;;;;;4998240;28;20542;-85
2024/01/30 14:41:54;;;;;;;7.73;5.27;;;;;;;;;;4987250;28;20459;-84
2024/01/30 14:44:26;;;;;;;7.30;4.67;;;;;;;;;;4985794;28;20519;-84
2024/01/30 14:46:56;;;;;;;7.03;4.40;;;;;;;;;;4998792;28;20471;-85
2024/01/30 14:49:23;;;;;;;9.07;5.67;;;;;;;;;;4978767;28;20459;-84
2024/01/30 14:52:04;;;;;;;8.00;5.07;;;;;;;;;;4980116;28;20555;-85
2024/01/30 14:54:33;;;;;;;6.70;5.20;;;;;;;;;;4999874;28;20451;-85
2024/01/30 14:57:03;;;;;;;6.77;4.40;;;;;;;;;;4988138;28;20488;-83
2024/01/30 14:59:41;;;;;;;10.23;5.00;;;;;;;;;;4983325;28;20460;-84
2024/01/30 15:02:11;;;;;;;8.57;5.70;;;;;;;;;;4994945;28;20462;-84
2024/01/30 15:04:40;;;;;;;7.47;4.53;;;;;;;;;;4987040;28;20455;-84
2024/01/30 15:07:10;;;;;;;6.23;5.10;;;;;;;;;;4979323;28;20481;-85